sensor_id;sensor_type;location;lat;lon;timestamp;P1;durP1;ratioP1;P2;durP2;ratioP2
41966;SDS011;27656;53.068;8.818;2023-06-22T00:01:18;9.17;;;6.43;;
41966;SDS011;27656;53.068;8.818;2023-06-22T00:03:45;13.67;;;6.73;;
41966;SDS011;27656;53.068;8.818;2023-06-22T00:06:12;8.77;;;6.80;;
41966;SDS011;27656;53.068;8.818;2023-06-22T00:08:38;11.23;;;7.10;;
41966;SDS011;27656;53.068;8.818;2023-06-22T00:11:05;9.80;;;7.20;;
41966;SDS011;27656;53.068;8.818;2023-06-22T00:13:31;10.57;;;7.07;;
41966;SDS011;27656;53.068;8.818;2023-06-22T00:15:57;7.83;;;6.03;;
41966;SDS011;27656;53.068;8.818;2023-06-22T00:18:24;10.73;;;7.03;;
41966;SDS011;27656;53.068;8.818;2023-06-22T00:20:54;11.37;;;6.83;;
41966;SDS011;27656;53.068;8.818;2023-06-22T00:23:25;10.83;;;7.83;;
41966;SDS011;27656;53.068;8.818;2023-06-22T00:25:51;9.77;;;6.90;;
41966;SDS011;27656;53.068;8.818;2023-06-22T00:28:18;8.67;;;6.63;;
41966;SDS011;27656;53.068;8.818;2023-06-22T00:30:45;12.83;;;7.50;;
41966;SDS011;27656;53.068;8.818;2023-06-22T00:33:12;10.67;;;7.20;;
41966;SDS011;27656;53.068;8.818;2023-06-22T00:35:38;13.07;;;7.40;;
41966;SDS011;27656;53.068;8.818;2023-06-22T00:38:07;14.80;;;9.10;;
41966;SDS011;27656;53.068;8.818;2023-06-22T00:40:34;10.67;;;7.73;;
41966;SDS011;27656;53.068;8.818;2023-06-22T00:43:01;12.17;;;6.97;;
41966;SDS011;27656;53.068;8.818;2023-06-22T00:45:27;10.83;;;7.33;;
41966;SDS011;27656;53.068;8.818;2023-06-22T00:47:57;11.53;;;8.57;;
41966;SDS011;27656;53.068;8.818;2023-06-22T00:50:25;16.17;;;9.50;;
41966;SDS011;27656;53.068;8.818;2023-06-22T00:52:56;10.83;;;8.83;;
41966;SDS011;27656;53.068;8.818;2023-06-22T00:55:25;13.77;;;9.17;;
41966;SDS011;27656;53.068;8.818;2023-06-22T00:57:52;12.73;;;9.90;;
41966;SDS011;27656;53.068;8.818;2023-06-22T01:00:23;13.37;;;9.77;;
41966;SDS011;27656;53.068;8.818;2023-06-22T01:02:51;11.63;;;8.57;;
41966;SDS011;27656;53.068;8.818;2023-06-22T01:05:19;10.90;;;8.40;;
41966;SDS011;27656;53.068;8.818;2023-06-22T01:16:20;15.87;;;10.37;;
41966;SDS011;27656;53.068;8.818;2023-06-22T01:18:50;14.93;;;9.97;;
41966;SDS011;27656;53.068;8.818;2023-06-22T01:21:20;17.13;;;11.37;;
41966;SDS011;27656;53.068;8.818;2023-06-22T01:26:36;15.57;;;11.53;;
41966;SDS011;27656;53.068;8.818;2023-06-22T01:29:05;11.93;;;9.50;;
41966;SDS011;27656;53.068;8.818;2023-06-22T01:31:35;16.13;;;11.87;;
41966;SDS011;27656;53.068;8.818;2023-06-22T01:34:03;15.57;;;11.93;;
41966;SDS011;27656;53.068;8.818;2023-06-22T01:36:31;16.97;;;12.30;;
41966;SDS011;27656;53.068;8.818;2023-06-22T01:38:58;18.00;;;13.20;;
41966;SDS011;27656;53.068;8.818;2023-06-22T01:41:26;18.33;;;12.13;;
41966;SDS011;27656;53.068;8.818;2023-06-22T01:43:53;15.97;;;12.50;;
41966;SDS011;27656;53.068;8.818;2023-06-22T01:46:20;16.00;;;12.80;;
41966;SDS011;27656;53.068;8.818;2023-06-22T01:48:48;17.57;;;12.67;;
41966;SDS011;27656;53.068;8.818;2023-06-22T01:51:14;19.47;;;12.60;;
41966;SDS011;27656;53.068;8.818;2023-06-22T01:53:41;16.83;;;11.93;;
41966;SDS011;27656;53.068;8.818;2023-06-22T01:56:08;15.40;;;11.57;;
41966;SDS011;27656;53.068;8.818;2023-06-22T01:58:36;17.70;;;12.83;;
41966;SDS011;27656;53.068;8.818;2023-06-22T02:01:20;18.73;;;12.03;;
41966;SDS011;27656;53.068;8.818;2023-06-22T02:03:53;17.53;;;12.20;;
41966;SDS011;27656;53.068;8.818;2023-06-22T02:06:29;14.90;;;11.73;;
41966;SDS011;27656;53.068;8.818;2023-06-22T02:09:02;18.20;;;13.37;;
41966;SDS011;27656;53.068;8.818;2023-06-22T02:11:29;18.23;;;12.97;;
41966;SDS011;27656;53.068;8.818;2023-06-22T02:13:56;17.30;;;12.30;;
41966;SDS011;27656;53.068;8.818;2023-06-22T02:16:23;17.87;;;12.37;;
41966;SDS011;27656;53.068;8.818;2023-06-22T02:18:51;15.27;;;11.30;;
41966;SDS011;27656;53.068;8.818;2023-06-22T02:21:18;15.87;;;11.37;;
41966;SDS011;27656;53.068;8.818;2023-06-22T02:23:45;14.03;;;10.13;;
41966;SDS011;27656;53.068;8.818;2023-06-22T02:26:12;15.83;;;10.57;;
41966;SDS011;27656;53.068;8.818;2023-06-22T02:28:39;13.87;;;10.93;;
41966;SDS011;27656;53.068;8.818;2023-06-22T02:31:05;13.20;;;10.73;;
41966;SDS011;27656;53.068;8.818;2023-06-22T02:33:32;13.60;;;10.70;;
41966;SDS011;27656;53.068;8.818;2023-06-22T02:35:58;17.53;;;9.83;;
41966;SDS011;27656;53.068;8.818;2023-06-22T02:38:25;12.43;;;9.50;;
41966;SDS011;27656;53.068;8.818;2023-06-22T02:40:52;16.13;;;10.27;;
41966;SDS011;27656;53.068;8.818;2023-06-22T02:43:19;15.97;;;11.23;;
41966;SDS011;27656;53.068;8.818;2023-06-22T02:45:45;17.30;;;12.17;;
41966;SDS011;27656;53.068;8.818;2023-06-22T02:48:12;15.70;;;11.93;;
41966;SDS011;27656;53.068;8.818;2023-06-22T02:50:38;15.97;;;11.73;;
41966;SDS011;27656;53.068;8.818;2023-06-22T02:53:05;15.73;;;11.43;;
41966;SDS011;27656;53.068;8.818;2023-06-22T02:55:31;16.63;;;11.70;;
41966;SDS011;27656;53.068;8.818;2023-06-22T02:57:57;16.20;;;11.03;;
41966;SDS011;27656;53.068;8.818;2023-06-22T03:00:25;15.00;;;11.80;;
41966;SDS011;27656;53.068;8.818;2023-06-22T03:02:57;17.40;;;12.73;;
41966;SDS011;27656;53.068;8.818;2023-06-22T03:05:24;17.77;;;11.67;;
41966;SDS011;27656;53.068;8.818;2023-06-22T03:07:50;15.53;;;12.00;;
41966;SDS011;27656;53.068;8.818;2023-06-22T03:10:17;14.77;;;10.97;;
41966;SDS011;27656;53.068;8.818;2023-06-22T03:12:43;16.23;;;11.57;;
41966;SDS011;27656;53.068;8.818;2023-06-22T03:15:11;20.17;;;12.97;;
41966;SDS011;27656;53.068;8.818;2023-06-22T03:17:38;18.33;;;12.33;;
41966;SDS011;27656;53.068;8.818;2023-06-22T03:20:06;17.57;;;12.93;;
41966;SDS011;27656;53.068;8.818;2023-06-22T03:22:35;18.47;;;14.30;;
41966;SDS011;27656;53.068;8.818;2023-06-22T03:25:03;22.13;;;15.33;;
41966;SDS011;27656;53.068;8.818;2023-06-22T03:27:29;21.57;;;15.30;;
41966;SDS011;27656;53.068;8.818;2023-06-22T03:29:57;17.00;;;11.73;;
41966;SDS011;27656;53.068;8.818;2023-06-22T03:32:23;19.50;;;14.73;;
41966;SDS011;27656;53.068;8.818;2023-06-22T03:34:50;21.13;;;15.53;;
41966;SDS011;27656;53.068;8.818;2023-06-22T03:37:17;24.50;;;16.70;;
41966;SDS011;27656;53.068;8.818;2023-06-22T03:39:43;19.47;;;14.40;;
41966;SDS011;27656;53.068;8.818;2023-06-22T03:42:10;17.53;;;12.70;;
41966;SDS011;27656;53.068;8.818;2023-06-22T03:44:37;17.30;;;13.30;;
41966;SDS011;27656;53.068;8.818;2023-06-22T03:47:04;27.53;;;16.07;;
41966;SDS011;27656;53.068;8.818;2023-06-22T03:49:30;21.93;;;15.00;;
41966;SDS011;27656;53.068;8.818;2023-06-22T03:51:57;19.83;;;14.20;;
41966;SDS011;27656;53.068;8.818;2023-06-22T03:54:23;19.13;;;13.73;;
41966;SDS011;27656;53.068;8.818;2023-06-22T03:56:50;23.73;;;15.27;;
41966;SDS011;27656;53.068;8.818;2023-06-22T03:59:16;23.23;;;16.73;;
41966;SDS011;27656;53.068;8.818;2023-06-22T04:01:43;23.70;;;16.03;;
41966;SDS011;27656;53.068;8.818;2023-06-22T04:04:09;24.17;;;18.47;;
41966;SDS011;27656;53.068;8.818;2023-06-22T04:06:36;25.33;;;18.00;;
41966;SDS011;27656;53.068;8.818;2023-06-22T04:09:02;26.07;;;18.13;;
41966;SDS011;27656;53.068;8.818;2023-06-22T04:11:29;24.57;;;18.20;;
41966;SDS011;27656;53.068;8.818;2023-06-22T04:13:55;29.73;;;19.47;;
41966;SDS011;27656;53.068;8.818;2023-06-22T04:16:22;26.83;;;19.70;;
41966;SDS011;27656;53.068;8.818;2023-06-22T04:18:49;29.13;;;20.37;;
41966;SDS011;27656;53.068;8.818;2023-06-22T04:21:15;24.53;;;18.60;;
41966;SDS011;27656;53.068;8.818;2023-06-22T04:23:42;24.50;;;18.43;;
41966;SDS011;27656;53.068;8.818;2023-06-22T04:26:09;25.53;;;17.90;;
41966;SDS011;27656;53.068;8.818;2023-06-22T04:28:35;25.30;;;18.67;;
41966;SDS011;27656;53.068;8.818;2023-06-22T04:31:02;27.13;;;19.73;;
41966;SDS011;27656;53.068;8.818;2023-06-22T04:33:29;25.60;;;19.03;;
41966;SDS011;27656;53.068;8.818;2023-06-22T04:35:55;24.90;;;18.23;;
41966;SDS011;27656;53.068;8.818;2023-06-22T04:38:27;29.20;;;20.50;;
41966;SDS011;27656;53.068;8.818;2023-06-22T04:40:53;31.10;;;21.43;;
41966;SDS011;27656;53.068;8.818;2023-06-22T04:43:20;31.37;;;21.53;;
41966;SDS011;27656;53.068;8.818;2023-06-22T04:45:46;32.03;;;22.83;;
41966;SDS011;27656;53.068;8.818;2023-06-22T04:48:18;31.07;;;21.50;;
41966;SDS011;27656;53.068;8.818;2023-06-22T04:50:44;28.53;;;20.83;;
41966;SDS011;27656;53.068;8.818;2023-06-22T04:53:11;31.60;;;20.67;;
41966;SDS011;27656;53.068;8.818;2023-06-22T04:55:39;30.33;;;21.37;;
41966;SDS011;27656;53.068;8.818;2023-06-22T04:58:08;28.97;;;20.60;;
41966;SDS011;27656;53.068;8.818;2023-06-22T05:00:34;29.67;;;20.30;;
41966;SDS011;27656;53.068;8.818;2023-06-22T05:03:02;26.93;;;19.87;;
41966;SDS011;27656;53.068;8.818;2023-06-22T05:05:45;31.73;;;19.80;;
41966;SDS011;27656;53.068;8.818;2023-06-22T05:08:13;28.90;;;19.67;;
41966;SDS011;27656;53.068;8.818;2023-06-22T05:10:40;26.80;;;20.50;;
41966;SDS011;27656;53.068;8.818;2023-06-22T05:13:24;28.07;;;18.57;;
41966;SDS011;27656;53.068;8.818;2023-06-22T05:15:52;29.17;;;19.27;;
41966;SDS011;27656;53.068;8.818;2023-06-22T05:18:19;26.23;;;19.07;;
41966;SDS011;27656;53.068;8.818;2023-06-22T05:20:50;22.80;;;16.13;;
41966;SDS011;27656;53.068;8.818;2023-06-22T05:23:16;23.47;;;16.80;;
41966;SDS011;27656;53.068;8.818;2023-06-22T05:25:43;22.53;;;17.00;;
41966;SDS011;27656;53.068;8.818;2023-06-22T05:28:09;26.50;;;17.67;;
41966;SDS011;27656;53.068;8.818;2023-06-22T05:30:37;25.53;;;17.23;;
41966;SDS011;27656;53.068;8.818;2023-06-22T05:33:04;23.10;;;16.80;;
41966;SDS011;27656;53.068;8.818;2023-06-22T05:35:30;28.27;;;17.07;;
41966;SDS011;27656;53.068;8.818;2023-06-22T05:37:57;23.33;;;16.77;;
41966;SDS011;27656;53.068;8.818;2023-06-22T05:40:23;22.97;;;15.60;;
41966;SDS011;27656;53.068;8.818;2023-06-22T05:42:50;17.27;;;12.80;;
41966;SDS011;27656;53.068;8.818;2023-06-22T05:45:16;19.77;;;13.87;;
41966;SDS011;27656;53.068;8.818;2023-06-22T05:47:43;18.67;;;14.17;;
41966;SDS011;27656;53.068;8.818;2023-06-22T05:50:10;20.03;;;13.83;;
41966;SDS011;27656;53.068;8.818;2023-06-22T05:52:38;18.10;;;13.50;;
41966;SDS011;27656;53.068;8.818;2023-06-22T05:55:05;22.70;;;13.10;;
41966;SDS011;27656;53.068;8.818;2023-06-22T05:57:32;19.33;;;12.53;;
41966;SDS011;27656;53.068;8.818;2023-06-22T05:59:58;17.90;;;12.83;;
41966;SDS011;27656;53.068;8.818;2023-06-22T06:02:25;16.93;;;11.37;;
41966;SDS011;27656;53.068;8.818;2023-06-22T06:04:51;16.73;;;11.57;;
41966;SDS011;27656;53.068;8.818;2023-06-22T06:07:18;16.10;;;10.77;;
41966;SDS011;27656;53.068;8.818;2023-06-22T06:09:45;15.30;;;9.73;;
41966;SDS011;27656;53.068;8.818;2023-06-22T06:12:11;13.60;;;9.93;;
41966;SDS011;27656;53.068;8.818;2023-06-22T06:14:38;17.00;;;10.50;;
41966;SDS011;27656;53.068;8.818;2023-06-22T06:17:04;15.20;;;10.50;;
41966;SDS011;27656;53.068;8.818;2023-06-22T06:19:31;11.53;;;9.60;;
41966;SDS011;27656;53.068;8.818;2023-06-22T06:21:57;14.17;;;9.53;;
41966;SDS011;27656;53.068;8.818;2023-06-22T06:24:24;12.23;;;9.03;;
41966;SDS011;27656;53.068;8.818;2023-06-22T06:26:50;12.90;;;9.53;;
41966;SDS011;27656;53.068;8.818;2023-06-22T06:29:17;16.17;;;9.57;;
41966;SDS011;27656;53.068;8.818;2023-06-22T06:31:44;14.53;;;9.03;;
41966;SDS011;27656;53.068;8.818;2023-06-22T06:34:10;14.33;;;9.67;;
41966;SDS011;27656;53.068;8.818;2023-06-22T06:36:37;13.23;;;9.20;;
41966;SDS011;27656;53.068;8.818;2023-06-22T06:39:03;18.67;;;10.03;;
41966;SDS011;27656;53.068;8.818;2023-06-22T06:41:30;11.40;;;8.73;;
41966;SDS011;27656;53.068;8.818;2023-06-22T06:43:56;14.20;;;9.60;;
41966;SDS011;27656;53.068;8.818;2023-06-22T06:46:23;13.70;;;9.40;;
41966;SDS011;27656;53.068;8.818;2023-06-22T06:48:49;17.03;;;9.13;;
41966;SDS011;27656;53.068;8.818;2023-06-22T06:51:16;13.47;;;8.80;;
41966;SDS011;27656;53.068;8.818;2023-06-22T06:53:43;11.33;;;8.43;;
41966;SDS011;27656;53.068;8.818;2023-06-22T06:56:09;13.60;;;8.60;;
41966;SDS011;27656;53.068;8.818;2023-06-22T06:58:37;13.40;;;8.17;;
41966;SDS011;27656;53.068;8.818;2023-06-22T07:01:03;12.30;;;9.03;;
41966;SDS011;27656;53.068;8.818;2023-06-22T07:03:30;9.63;;;8.00;;
41966;SDS011;27656;53.068;8.818;2023-06-22T07:05:58;10.47;;;8.03;;
41966;SDS011;27656;53.068;8.818;2023-06-22T07:08:25;11.97;;;8.57;;
41966;SDS011;27656;53.068;8.818;2023-06-22T07:10:52;12.93;;;7.77;;
41966;SDS011;27656;53.068;8.818;2023-06-22T07:13:18;16.73;;;7.23;;
41966;SDS011;27656;53.068;8.818;2023-06-22T07:15:45;11.43;;;8.00;;
41966;SDS011;27656;53.068;8.818;2023-06-22T07:18:11;13.50;;;7.73;;
41966;SDS011;27656;53.068;8.818;2023-06-22T07:20:38;13.37;;;7.57;;
41966;SDS011;27656;53.068;8.818;2023-06-22T07:23:06;9.43;;;6.53;;
41966;SDS011;27656;53.068;8.818;2023-06-22T07:25:32;10.30;;;6.90;;
41966;SDS011;27656;53.068;8.818;2023-06-22T07:28:06;8.57;;;6.77;;
41966;SDS011;27656;53.068;8.818;2023-06-22T07:30:33;9.80;;;7.20;;
41966;SDS011;27656;53.068;8.818;2023-06-22T07:33:00;12.67;;;7.23;;
41966;SDS011;27656;53.068;8.818;2023-06-22T07:35:30;8.47;;;6.37;;
41966;SDS011;27656;53.068;8.818;2023-06-22T07:37:56;11.03;;;6.20;;
41966;SDS011;27656;53.068;8.818;2023-06-22T07:40:23;10.30;;;6.27;;
41966;SDS011;27656;53.068;8.818;2023-06-22T07:42:50;7.47;;;6.10;;
41966;SDS011;27656;53.068;8.818;2023-06-22T07:45:18;12.20;;;6.53;;
41966;SDS011;27656;53.068;8.818;2023-06-22T07:47:44;10.43;;;7.07;;
41966;SDS011;27656;53.068;8.818;2023-06-22T07:50:11;12.83;;;7.33;;
41966;SDS011;27656;53.068;8.818;2023-06-22T07:52:37;10.47;;;7.43;;
41966;SDS011;27656;53.068;8.818;2023-06-22T07:55:04;10.67;;;6.67;;
41966;SDS011;27656;53.068;8.818;2023-06-22T07:57:30;10.60;;;7.20;;
41966;SDS011;27656;53.068;8.818;2023-06-22T08:00:01;7.83;;;5.93;;
41966;SDS011;27656;53.068;8.818;2023-06-22T08:02:44;7.63;;;6.07;;
41966;SDS011;27656;53.068;8.818;2023-06-22T08:05:11;7.32;;;5.60;;
41966;SDS011;27656;53.068;8.818;2023-06-22T08:07:58;10.48;;;6.70;;
41966;SDS011;27656;53.068;8.818;2023-06-22T08:10:24;7.83;;;5.80;;
41966;SDS011;27656;53.068;8.818;2023-06-22T08:12:51;8.90;;;6.50;;
41966;SDS011;27656;53.068;8.818;2023-06-22T08:15:18;11.23;;;6.20;;
41966;SDS011;27656;53.068;8.818;2023-06-22T08:17:45;10.30;;;6.13;;
41966;SDS011;27656;53.068;8.818;2023-06-22T08:20:14;8.63;;;6.63;;
41966;SDS011;27656;53.068;8.818;2023-06-22T08:22:41;9.27;;;6.07;;
41966;SDS011;27656;53.068;8.818;2023-06-22T08:25:08;7.63;;;5.00;;
41966;SDS011;27656;53.068;8.818;2023-06-22T08:27:35;9.40;;;5.43;;
41966;SDS011;27656;53.068;8.818;2023-06-22T08:30:02;6.30;;;4.97;;
41966;SDS011;27656;53.068;8.818;2023-06-22T08:32:29;9.07;;;5.93;;
41966;SDS011;27656;53.068;8.818;2023-06-22T08:34:56;10.97;;;6.13;;
41966;SDS011;27656;53.068;8.818;2023-06-22T08:37:23;6.57;;;5.27;;
41966;SDS011;27656;53.068;8.818;2023-06-22T08:39:58;7.40;;;5.03;;
41966;SDS011;27656;53.068;8.818;2023-06-22T08:42:25;7.73;;;4.90;;
41966;SDS011;27656;53.068;8.818;2023-06-22T08:44:51;8.35;;;5.13;;
41966;SDS011;27656;53.068;8.818;2023-06-22T08:47:18;7.07;;;4.93;;
41966;SDS011;27656;53.068;8.818;2023-06-22T08:49:45;6.90;;;4.70;;
41966;SDS011;27656;53.068;8.818;2023-06-22T08:52:11;9.00;;;4.82;;
41966;SDS011;27656;53.068;8.818;2023-06-22T08:54:38;8.68;;;5.78;;
41966;SDS011;27656;53.068;8.818;2023-06-22T08:57:05;7.05;;;4.78;;
41966;SDS011;27656;53.068;8.818;2023-06-22T08:59:31;6.80;;;4.60;;
41966;SDS011;27656;53.068;8.818;2023-06-22T09:01:58;5.38;;;4.22;;
41966;SDS011;27656;53.068;8.818;2023-06-22T09:04:24;6.90;;;4.10;;
41966;SDS011;27656;53.068;8.818;2023-06-22T09:06:51;9.35;;;5.00;;
41966;SDS011;27656;53.068;8.818;2023-06-22T09:09:18;8.52;;;4.85;;
41966;SDS011;27656;53.068;8.818;2023-06-22T09:11:45;8.23;;;5.32;;
41966;SDS011;27656;53.068;8.818;2023-06-22T09:14:11;10.10;;;5.60;;
41966;SDS011;27656;53.068;8.818;2023-06-22T09:16:38;10.13;;;5.40;;
41966;SDS011;27656;53.068;8.818;2023-06-22T09:19:05;8.27;;;5.80;;
41966;SDS011;27656;53.068;8.818;2023-06-22T09:21:31;10.02;;;5.78;;
41966;SDS011;27656;53.068;8.818;2023-06-22T09:24:00;9.25;;;6.22;;
41966;SDS011;27656;53.068;8.818;2023-06-22T09:26:26;8.65;;;5.35;;
41966;SDS011;27656;53.068;8.818;2023-06-22T09:28:53;9.60;;;5.97;;
41966;SDS011;27656;53.068;8.818;2023-06-22T09:31:19;11.02;;;6.70;;
41966;SDS011;27656;53.068;8.818;2023-06-22T09:33:52;10.43;;;6.85;;
41966;SDS011;27656;53.068;8.818;2023-06-22T09:36:20;10.07;;;6.70;;
41966;SDS011;27656;53.068;8.818;2023-06-22T09:38:47;8.70;;;5.80;;
41966;SDS011;27656;53.068;8.818;2023-06-22T09:41:14;9.10;;;6.82;;
41966;SDS011;27656;53.068;8.818;2023-06-22T09:43:42;9.50;;;6.35;;
41966;SDS011;27656;53.068;8.818;2023-06-22T09:46:08;9.05;;;6.45;;
41966;SDS011;27656;53.068;8.818;2023-06-22T09:48:35;9.70;;;7.00;;
41966;SDS011;27656;53.068;8.818;2023-06-22T09:51:05;10.85;;;7.20;;
41966;SDS011;27656;53.068;8.818;2023-06-22T09:53:32;11.05;;;7.47;;
41966;SDS011;27656;53.068;8.818;2023-06-22T09:56:01;8.45;;;6.18;;
41966;SDS011;27656;53.068;8.818;2023-06-22T09:58:28;9.00;;;6.80;;
41966;SDS011;27656;53.068;8.818;2023-06-22T10:00:54;10.43;;;6.38;;
41966;SDS011;27656;53.068;8.818;2023-06-22T10:03:20;12.32;;;7.53;;
41966;SDS011;27656;53.068;8.818;2023-06-22T10:05:47;8.13;;;6.22;;
41966;SDS011;27656;53.068;8.818;2023-06-22T10:08:14;8.90;;;6.85;;
41966;SDS011;27656;53.068;8.818;2023-06-22T10:10:41;9.30;;;6.70;;
41966;SDS011;27656;53.068;8.818;2023-06-22T10:13:08;9.35;;;6.38;;
41966;SDS011;27656;53.068;8.818;2023-06-22T10:15:36;11.38;;;6.68;;
41966;SDS011;27656;53.068;8.818;2023-06-22T10:18:03;8.05;;;5.97;;
41966;SDS011;27656;53.068;8.818;2023-06-22T10:20:30;6.95;;;5.28;;
41966;SDS011;27656;53.068;8.818;2023-06-22T10:22:56;8.13;;;5.72;;
41966;SDS011;27656;53.068;8.818;2023-06-22T10:25:26;9.82;;;6.30;;
41966;SDS011;27656;53.068;8.818;2023-06-22T10:27:53;7.80;;;5.65;;
41966;SDS011;27656;53.068;8.818;2023-06-22T10:30:19;7.25;;;5.50;;
41966;SDS011;27656;53.068;8.818;2023-06-22T10:32:46;8.02;;;6.07;;
41966;SDS011;27656;53.068;8.818;2023-06-22T10:35:12;8.25;;;5.47;;
41966;SDS011;27656;53.068;8.818;2023-06-22T10:37:42;9.07;;;5.90;;
41966;SDS011;27656;53.068;8.818;2023-06-22T10:40:10;8.07;;;5.60;;
41966;SDS011;27656;53.068;8.818;2023-06-22T10:42:41;9.13;;;5.28;;
41966;SDS011;27656;53.068;8.818;2023-06-22T10:45:08;6.80;;;5.32;;
41966;SDS011;27656;53.068;8.818;2023-06-22T10:47:34;8.48;;;5.47;;
41966;SDS011;27656;53.068;8.818;2023-06-22T10:50:02;7.82;;;5.30;;
41966;SDS011;27656;53.068;8.818;2023-06-22T10:52:29;8.93;;;4.65;;
41966;SDS011;27656;53.068;8.818;2023-06-22T10:54:55;5.68;;;4.78;;
41966;SDS011;27656;53.068;8.818;2023-06-22T10:57:22;5.90;;;4.63;;
41966;SDS011;27656;53.068;8.818;2023-06-22T10:59:48;8.18;;;5.93;;
41966;SDS011;27656;53.068;8.818;2023-06-22T11:02:15;8.13;;;5.35;;
41966;SDS011;27656;53.068;8.818;2023-06-22T11:04:42;8.93;;;6.00;;
41966;SDS011;27656;53.068;8.818;2023-06-22T11:07:09;7.43;;;5.40;;
41966;SDS011;27656;53.068;8.818;2023-06-22T11:09:35;6.65;;;5.20;;
41966;SDS011;27656;53.068;8.818;2023-06-22T11:12:02;7.50;;;5.22;;
41966;SDS011;27656;53.068;8.818;2023-06-22T11:14:29;6.60;;;5.72;;
41966;SDS011;27656;53.068;8.818;2023-06-22T11:16:55;6.82;;;4.95;;
41966;SDS011;27656;53.068;8.818;2023-06-22T11:19:23;6.80;;;5.15;;
41966;SDS011;27656;53.068;8.818;2023-06-22T11:21:49;5.95;;;5.05;;
41966;SDS011;27656;53.068;8.818;2023-06-22T11:24:16;6.53;;;5.20;;
41966;SDS011;27656;53.068;8.818;2023-06-22T11:26:42;5.68;;;4.90;;
41966;SDS011;27656;53.068;8.818;2023-06-22T11:29:09;6.80;;;5.32;;
41966;SDS011;27656;53.068;8.818;2023-06-22T11:31:44;9.50;;;4.90;;
41966;SDS011;27656;53.068;8.818;2023-06-22T11:34:11;8.13;;;4.93;;
41966;SDS011;27656;53.068;8.818;2023-06-22T11:36:37;7.05;;;5.20;;
41966;SDS011;27656;53.068;8.818;2023-06-22T11:39:04;5.30;;;4.18;;
41966;SDS011;27656;53.068;8.818;2023-06-22T11:41:31;9.18;;;5.07;;
41966;SDS011;27656;53.068;8.818;2023-06-22T11:43:58;6.65;;;5.45;;
41966;SDS011;27656;53.068;8.818;2023-06-22T11:46:24;4.72;;;4.22;;
41966;SDS011;27656;53.068;8.818;2023-06-22T11:48:51;10.18;;;5.05;;
41966;SDS011;27656;53.068;8.818;2023-06-22T11:51:17;9.43;;;5.18;;
41966;SDS011;27656;53.068;8.818;2023-06-22T11:53:44;6.20;;;4.82;;
41966;SDS011;27656;53.068;8.818;2023-06-22T11:56:10;6.70;;;4.97;;
41966;SDS011;27656;53.068;8.818;2023-06-22T11:58:37;7.45;;;5.10;;
41966;SDS011;27656;53.068;8.818;2023-06-22T12:01:03;5.45;;;4.78;;
41966;SDS011;27656;53.068;8.818;2023-06-22T12:03:31;6.88;;;5.32;;
41966;SDS011;27656;53.068;8.818;2023-06-22T12:05:57;6.90;;;5.22;;
41966;SDS011;27656;53.068;8.818;2023-06-22T12:08:24;6.25;;;5.18;;
41966;SDS011;27656;53.068;8.818;2023-06-22T12:10:51;5.32;;;4.07;;
41966;SDS011;27656;53.068;8.818;2023-06-22T12:13:18;6.55;;;4.85;;
41966;SDS011;27656;53.068;8.818;2023-06-22T12:15:44;6.43;;;5.18;;
41966;SDS011;27656;53.068;8.818;2023-06-22T12:18:11;8.32;;;5.20;;
41966;SDS011;27656;53.068;8.818;2023-06-22T12:20:37;7.05;;;5.20;;
41966;SDS011;27656;53.068;8.818;2023-06-22T12:23:04;8.25;;;4.95;;
41966;SDS011;27656;53.068;8.818;2023-06-22T12:25:30;5.90;;;4.63;;
41966;SDS011;27656;53.068;8.818;2023-06-22T12:27:57;4.80;;;4.18;;
41966;SDS011;27656;53.068;8.818;2023-06-22T12:30:23;7.00;;;4.43;;
41966;SDS011;27656;53.068;8.818;2023-06-22T12:32:50;5.78;;;4.43;;
41966;SDS011;27656;53.068;8.818;2023-06-22T12:35:19;5.55;;;4.70;;
41966;SDS011;27656;53.068;8.818;2023-06-22T12:37:46;6.75;;;4.45;;
41966;SDS011;27656;53.068;8.818;2023-06-22T12:40:12;6.97;;;4.90;;
41966;SDS011;27656;53.068;8.818;2023-06-22T12:42:39;6.60;;;4.80;;
41966;SDS011;27656;53.068;8.818;2023-06-22T12:45:06;5.57;;;4.95;;
41966;SDS011;27656;53.068;8.818;2023-06-22T12:47:33;5.55;;;4.55;;
41966;SDS011;27656;53.068;8.818;2023-06-22T12:49:59;5.70;;;5.13;;
41966;SDS011;27656;53.068;8.818;2023-06-22T12:52:26;7.03;;;4.78;;
41966;SDS011;27656;53.068;8.818;2023-06-22T12:54:52;5.90;;;5.00;;
41966;SDS011;27656;53.068;8.818;2023-06-22T12:57:21;7.70;;;4.80;;
41966;SDS011;27656;53.068;8.818;2023-06-22T12:59:48;7.50;;;4.90;;
41966;SDS011;27656;53.068;8.818;2023-06-22T13:02:14;7.97;;;4.60;;
41966;SDS011;27656;53.068;8.818;2023-06-22T13:04:41;6.45;;;4.90;;
41966;SDS011;27656;53.068;8.818;2023-06-22T13:07:09;11.23;;;5.10;;
41966;SDS011;27656;53.068;8.818;2023-06-22T13:09:48;5.60;;;4.65;;
41966;SDS011;27656;53.068;8.818;2023-06-22T13:12:19;6.75;;;5.03;;
41966;SDS011;27656;53.068;8.818;2023-06-22T13:14:46;5.20;;;4.70;;
41966;SDS011;27656;53.068;8.818;2023-06-22T13:17:13;6.55;;;4.78;;
41966;SDS011;27656;53.068;8.818;2023-06-22T13:19:40;6.85;;;5.40;;
41966;SDS011;27656;53.068;8.818;2023-06-22T13:22:09;9.50;;;5.20;;
41966;SDS011;27656;53.068;8.818;2023-06-22T13:25:06;6.07;;;4.60;;
41966;SDS011;27656;53.068;8.818;2023-06-22T13:27:33;6.53;;;4.80;;
41966;SDS011;27656;53.068;8.818;2023-06-22T13:30:00;7.75;;;4.63;;
41966;SDS011;27656;53.068;8.818;2023-06-22T13:32:26;8.65;;;4.95;;
41966;SDS011;27656;53.068;8.818;2023-06-22T13:34:53;7.28;;;4.82;;
41966;SDS011;27656;53.068;8.818;2023-06-22T13:37:20;6.53;;;5.22;;
41966;SDS011;27656;53.068;8.818;2023-06-22T13:39:46;6.13;;;5.22;;
41966;SDS011;27656;53.068;8.818;2023-06-22T13:42:13;5.25;;;4.78;;
41966;SDS011;27656;53.068;8.818;2023-06-22T13:44:39;5.95;;;4.93;;
41966;SDS011;27656;53.068;8.818;2023-06-22T13:47:06;9.15;;;5.55;;
41966;SDS011;27656;53.068;8.818;2023-06-22T13:49:33;6.28;;;4.97;;
41966;SDS011;27656;53.068;8.818;2023-06-22T13:51:59;8.93;;;5.43;;
41966;SDS011;27656;53.068;8.818;2023-06-22T13:54:26;7.10;;;5.47;;
41966;SDS011;27656;53.068;8.818;2023-06-22T13:56:56;8.20;;;5.07;;
41966;SDS011;27656;53.068;8.818;2023-06-22T13:59:22;7.10;;;5.90;;
41966;SDS011;27656;53.068;8.818;2023-06-22T14:01:49;6.90;;;5.25;;
41966;SDS011;27656;53.068;8.818;2023-06-22T14:04:15;8.40;;;5.40;;
41966;SDS011;27656;53.068;8.818;2023-06-22T14:06:42;6.07;;;4.97;;
41966;SDS011;27656;53.068;8.818;2023-06-22T14:09:08;7.00;;;5.55;;
41966;SDS011;27656;53.068;8.818;2023-06-22T14:11:35;6.20;;;5.18;;
41966;SDS011;27656;53.068;8.818;2023-06-22T14:14:02;6.85;;;5.43;;
41966;SDS011;27656;53.068;8.818;2023-06-22T14:16:28;7.75;;;5.72;;
41966;SDS011;27656;53.068;8.818;2023-06-22T14:18:55;5.90;;;5.30;;
41966;SDS011;27656;53.068;8.818;2023-06-22T14:21:23;8.45;;;6.00;;
41966;SDS011;27656;53.068;8.818;2023-06-22T14:23:50;7.63;;;5.43;;
41966;SDS011;27656;53.068;8.818;2023-06-22T14:26:17;7.43;;;5.90;;
41966;SDS011;27656;53.068;8.818;2023-06-22T14:28:47;6.63;;;5.95;;
41966;SDS011;27656;53.068;8.818;2023-06-22T14:31:16;7.25;;;5.93;;
41966;SDS011;27656;53.068;8.818;2023-06-22T14:33:45;8.30;;;5.82;;
41966;SDS011;27656;53.068;8.818;2023-06-22T14:36:13;6.85;;;5.57;;
41966;SDS011;27656;53.068;8.818;2023-06-22T14:38:40;7.55;;;5.85;;
41966;SDS011;27656;53.068;8.818;2023-06-22T14:41:06;6.85;;;5.70;;
41966;SDS011;27656;53.068;8.818;2023-06-22T14:43:43;7.07;;;6.38;;
41966;SDS011;27656;53.068;8.818;2023-06-22T14:46:09;9.60;;;6.13;;
41966;SDS011;27656;53.068;8.818;2023-06-22T14:48:36;8.10;;;6.35;;